sensor_id;sensor_type;location;lat;lon;timestamp;temperature;humidity
78779;DHT22;68121;52.404;5.318;2023-12-28T00:01:28;10.20;72.50
78779;DHT22;68121;52.404;5.318;2023-12-28T00:03:54;10.20;72.50
78779;DHT22;68121;52.404;5.318;2023-12-28T00:06:20;10.20;72.60
78779;DHT22;68121;52.404;5.318;2023-12-28T00:08:46;10.20;72.60
78779;DHT22;68121;52.404;5.318;2023-12-28T00:11:12;10.20;72.60
78779;DHT22;68121;52.404;5.318;2023-12-28T00:13:38;10.20;72.70
78779;DHT22;68121;52.404;5.318;2023-12-28T00:16:04;10.10;72.70
78779;DHT22;68121;52.404;5.318;2023-12-28T00:18:30;10.10;72.70
78779;DHT22;68121;52.404;5.318;2023-12-28T00:20:57;10.10;72.80
78779;DHT22;68121;52.404;5.318;2023-12-28T00:23:24;10.10;72.90
78779;DHT22;68121;52.404;5.318;2023-12-28T00:25:51;10.10;72.90
78779;DHT22;68121;52.404;5.318;2023-12-28T00:28:17;10.10;72.90
78779;DHT22;68121;52.404;5.318;2023-12-28T00:30:43;10.10;73.00
78779;DHT22;68121;52.404;5.318;2023-12-28T00:33:09;10.10;73.00
78779;DHT22;68121;52.404;5.318;2023-12-28T00:35:35;10.10;73.00
78779;DHT22;68121;52.404;5.318;2023-12-28T00:38:01;10.10;73.10
78779;DHT22;68121;52.404;5.318;2023-12-28T00:40:27;10.10;73.20
78779;DHT22;68121;52.404;5.318;2023-12-28T00:42:54;10.10;73.20
78779;DHT22;68121;52.404;5.318;2023-12-28T00:45:20;10.20;73.20
78779;DHT22;68121;52.404;5.318;2023-12-28T00:47:46;10.20;73.20
78779;DHT22;68121;52.404;5.318;2023-12-28T00:50:12;10.20;73.20
78779;DHT22;68121;52.404;5.318;2023-12-28T00:52:41;10.20;73.30
78779;DHT22;68121;52.404;5.318;2023-12-28T00:55:07;10.20;73.30
78779;DHT22;68121;52.404;5.318;2023-12-28T00:57:34;10.20;73.30
78779;DHT22;68121;52.404;5.318;2023-12-28T01:00:00;10.30;73.40
78779;DHT22;68121;52.404;5.318;2023-12-28T01:02:26;10.30;73.40
78779;DHT22;68121;52.404;5.318;2023-12-28T01:04:52;10.30;73.40
78779;DHT22;68121;52.404;5.318;2023-12-28T01:07:18;10.30;73.40
78779;DHT22;68121;52.404;5.318;2023-12-28T01:09:45;10.40;73.30
78779;DHT22;68121;52.404;5.318;2023-12-28T01:12:11;10.40;73.40
78779;DHT22;68121;52.404;5.318;2023-12-28T01:14:37;10.40;73.40
78779;DHT22;68121;52.404;5.318;2023-12-28T01:17:03;10.40;73.40
78779;DHT22;68121;52.404;5.318;2023-12-28T01:19:29;10.50;73.40
78779;DHT22;68121;52.404;5.318;2023-12-28T01:21:55;10.50;73.40
78779;DHT22;68121;52.404;5.318;2023-12-28T01:24:21;10.50;73.50
78779;DHT22;68121;52.404;5.318;2023-12-28T01:26:47;10.50;73.50
78779;DHT22;68121;52.404;5.318;2023-12-28T01:29:13;10.50;73.50
78779;DHT22;68121;52.404;5.318;2023-12-28T01:31:39;10.50;73.50
78779;DHT22;68121;52.404;5.318;2023-12-28T01:34:06;10.50;73.60
78779;DHT22;68121;52.404;5.318;2023-12-28T01:36:32;10.50;73.60
78779;DHT22;68121;52.404;5.318;2023-12-28T01:38:58;10.50;73.60
78779;DHT22;68121;52.404;5.318;2023-12-28T01:41:24;10.50;73.60
78779;DHT22;68121;52.404;5.318;2023-12-28T01:43:50;10.50;73.60
78779;DHT22;68121;52.404;5.318;2023-12-28T01:46:20;10.50;73.60
78779;DHT22;68121;52.404;5.318;2023-12-28T01:48:49;10.50;73.70
78779;DHT22;68121;52.404;5.318;2023-12-28T01:51:15;10.50;73.60
78779;DHT22;68121;52.404;5.318;2023-12-28T01:53:43;10.50;73.60
78779;DHT22;68121;52.404;5.318;2023-12-28T01:56:10;10.50;73.70
78779;DHT22;68121;52.404;5.318;2023-12-28T01:58:37;10.50;73.60
78779;DHT22;68121;52.404;5.318;2023-12-28T02:01:06;10.50;73.60
78779;DHT22;68121;52.404;5.318;2023-12-28T02:03:32;10.50;73.60
78779;DHT22;68121;52.404;5.318;2023-12-28T02:05:59;10.50;73.60
78779;DHT22;68121;52.404;5.318;2023-12-28T02:08:26;10.50;73.60
78779;DHT22;68121;52.404;5.318;2023-12-28T02:10:52;10.60;73.50
78779;DHT22;68121;52.404;5.318;2023-12-28T02:13:18;10.60;73.50
78779;DHT22;68121;52.404;5.318;2023-12-28T02:15:47;10.60;73.50
78779;DHT22;68121;52.404;5.318;2023-12-28T02:18:21;10.60;73.50
78779;DHT22;68121;52.404;5.318;2023-12-28T02:20:48;10.60;73.50
78779;DHT22;68121;52.404;5.318;2023-12-28T02:23:15;10.60;73.40
78779;DHT22;68121;52.404;5.318;2023-12-28T02:25:41;10.70;73.40
78779;DHT22;68121;52.404;5.318;2023-12-28T02:28:08;10.70;73.40
78779;DHT22;68121;52.404;5.318;2023-12-28T02:30:34;10.60;73.30
78779;DHT22;68121;52.404;5.318;2023-12-28T02:33:15;10.70;73.30
78779;DHT22;68121;52.404;5.318;2023-12-28T02:35:51;10.70;73.30
78779;DHT22;68121;52.404;5.318;2023-12-28T02:38:18;10.70;73.30
78779;DHT22;68121;52.404;5.318;2023-12-28T02:40:45;10.70;73.30
78779;DHT22;68121;52.404;5.318;2023-12-28T02:43:13;10.70;73.20
78779;DHT22;68121;52.404;5.318;2023-12-28T02:45:39;10.70;73.20
78779;DHT22;68121;52.404;5.318;2023-12-28T02:48:06;10.70;73.10
78779;DHT22;68121;52.404;5.318;2023-12-28T02:50:32;10.70;73.20
78779;DHT22;68121;52.404;5.318;2023-12-28T02:52:59;10.60;73.20
78779;DHT22;68121;52.404;5.318;2023-12-28T02:55:25;10.70;73.20
78779;DHT22;68121;52.404;5.318;2023-12-28T02:57:55;10.70;73.10
78779;DHT22;68121;52.404;5.318;2023-12-28T03:00:21;10.70;73.00
78779;DHT22;68121;52.404;5.318;2023-12-28T03:02:47;10.70;73.00
78779;DHT22;68121;52.404;5.318;2023-12-28T03:05:13;10.60;73.10
78779;DHT22;68121;52.404;5.318;2023-12-28T03:07:39;10.70;73.10
78779;DHT22;68121;52.404;5.318;2023-12-28T03:10:07;10.60;73.10
78779;DHT22;68121;52.404;5.318;2023-12-28T03:12:33;10.70;73.10
78779;DHT22;68121;52.404;5.318;2023-12-28T03:14:59;10.70;73.00
78779;DHT22;68121;52.404;5.318;2023-12-28T03:17:25;10.70;73.00
78779;DHT22;68121;52.404;5.318;2023-12-28T03:19:51;10.70;73.00
78779;DHT22;68121;52.404;5.318;2023-12-28T03:22:17;10.70;73.00
78779;DHT22;68121;52.404;5.318;2023-12-28T03:24:43;10.60;73.00
78779;DHT22;68121;52.404;5.318;2023-12-28T03:27:10;10.70;73.00
78779;DHT22;68121;52.404;5.318;2023-12-28T03:29:36;10.60;73.00
78779;DHT22;68121;52.404;5.318;2023-12-28T03:32:02;10.60;73.00
78779;DHT22;68121;52.404;5.318;2023-12-28T03:34:29;10.60;73.00
78779;DHT22;68121;52.404;5.318;2023-12-28T03:36:56;10.70;73.00
78779;DHT22;68121;52.404;5.318;2023-12-28T03:39:23;10.60;73.00
78779;DHT22;68121;52.404;5.318;2023-12-28T03:41:49;10.60;73.00
78779;DHT22;68121;52.404;5.318;2023-12-28T03:44:15;10.70;72.90
78779;DHT22;68121;52.404;5.318;2023-12-28T03:46:41;10.70;72.90
78779;DHT22;68121;52.404;5.318;2023-12-28T03:49:07;10.60;72.90
78779;DHT22;68121;52.404;5.318;2023-12-28T03:51:33;10.60;72.90
78779;DHT22;68121;52.404;5.318;2023-12-28T03:53:59;10.60;72.90
78779;DHT22;68121;52.404;5.318;2023-12-28T03:56:27;10.60;72.90
78779;DHT22;68121;52.404;5.318;2023-12-28T03:58:54;10.60;72.90
78779;DHT22;68121;52.404;5.318;2023-12-28T04:01:21;10.60;72.80
78779;DHT22;68121;52.404;5.318;2023-12-28T04:03:48;10.60;72.80
78779;DHT22;68121;52.404;5.318;2023-12-28T04:06:15;10.60;72.90
78779;DHT22;68121;52.404;5.318;2023-12-28T04:08:42;10.60;72.80
78779;DHT22;68121;52.404;5.318;2023-12-28T04:11:09;10.60;72.80
78779;DHT22;68121;52.404;5.318;2023-12-28T04:13:35;10.60;72.80
78779;DHT22;68121;52.404;5.318;2023-12-28T04:16:02;10.60;72.80
78779;DHT22;68121;52.404;5.318;2023-12-28T04:18:28;10.60;72.80
78779;DHT22;68121;52.404;5.318;2023-12-28T04:20:54;10.50;72.80
78779;DHT22;68121;52.404;5.318;2023-12-28T04:23:20;10.50;72.80
78779;DHT22;68121;52.404;5.318;2023-12-28T04:25:46;10.50;72.80
78779;DHT22;68121;52.404;5.318;2023-12-28T04:28:13;10.50;72.80
78779;DHT22;68121;52.404;5.318;2023-12-28T04:30:39;10.60;72.80
78779;DHT22;68121;52.404;5.318;2023-12-28T04:33:05;10.60;72.70
78779;DHT22;68121;52.404;5.318;2023-12-28T04:35:31;10.60;72.60
78779;DHT22;68121;52.404;5.318;2023-12-28T04:37:57;10.60;72.60
78779;DHT22;68121;52.404;5.318;2023-12-28T04:40:23;10.60;72.60
78779;DHT22;68121;52.404;5.318;2023-12-28T04:42:49;10.60;72.50
78779;DHT22;68121;52.404;5.318;2023-12-28T04:45:15;10.60;72.60
78779;DHT22;68121;52.404;5.318;2023-12-28T04:47:41;10.60;72.50
78779;DHT22;68121;52.404;5.318;2023-12-28T04:50:08;10.60;72.50
78779;DHT22;68121;52.404;5.318;2023-12-28T04:52:34;10.60;72.50
78779;DHT22;68121;52.404;5.318;2023-12-28T04:55:00;10.60;72.30
78779;DHT22;68121;52.404;5.318;2023-12-28T04:57:26;10.60;72.40
78779;DHT22;68121;52.404;5.318;2023-12-28T04:59:54;10.70;72.40
78779;DHT22;68121;52.404;5.318;2023-12-28T05:02:20;10.60;72.30
78779;DHT22;68121;52.404;5.318;2023-12-28T05:04:46;10.70;72.30
78779;DHT22;68121;52.404;5.318;2023-12-28T05:07:12;10.70;72.20
78779;DHT22;68121;52.404;5.318;2023-12-28T05:09:38;10.70;72.10
78779;DHT22;68121;52.404;5.318;2023-12-28T05:12:05;10.70;72.00
78779;DHT22;68121;52.404;5.318;2023-12-28T05:14:31;10.80;72.00
78779;DHT22;68121;52.404;5.318;2023-12-28T05:16:57;10.80;71.90
78779;DHT22;68121;52.404;5.318;2023-12-28T05:19:23;10.80;71.80
78779;DHT22;68121;52.404;5.318;2023-12-28T05:21:49;10.80;71.80
78779;DHT22;68121;52.404;5.318;2023-12-28T05:24:15;10.80;71.80
78779;DHT22;68121;52.404;5.318;2023-12-28T05:26:41;10.80;71.80
78779;DHT22;68121;52.404;5.318;2023-12-28T05:29:07;10.80;71.70
78779;DHT22;68121;52.404;5.318;2023-12-28T05:31:33;10.80;71.70
78779;DHT22;68121;52.404;5.318;2023-12-28T05:33:59;10.80;71.60
78779;DHT22;68121;52.404;5.318;2023-12-28T05:36:25;10.80;71.50
78779;DHT22;68121;52.404;5.318;2023-12-28T05:38:51;10.80;71.50
78779;DHT22;68121;52.404;5.318;2023-12-28T05:41:17;10.80;71.50
78779;DHT22;68121;52.404;5.318;2023-12-28T05:43:43;10.80;71.50
78779;DHT22;68121;52.404;5.318;2023-12-28T05:46:09;10.80;71.50
78779;DHT22;68121;52.404;5.318;2023-12-28T05:48:35;10.90;71.40
78779;DHT22;68121;52.404;5.318;2023-12-28T05:51:01;10.80;71.40
78779;DHT22;68121;52.404;5.318;2023-12-28T05:53:27;10.90;71.30
78779;DHT22;68121;52.404;5.318;2023-12-28T05:55:55;10.90;71.30
78779;DHT22;68121;52.404;5.318;2023-12-28T05:58:21;10.90;71.20
78779;DHT22;68121;52.404;5.318;2023-12-28T06:00:47;10.90;71.10
78779;DHT22;68121;52.404;5.318;2023-12-28T06:03:14;10.90;71.10
78779;DHT22;68121;52.404;5.318;2023-12-28T06:05:40;10.90;71.10
78779;DHT22;68121;52.404;5.318;2023-12-28T06:08:06;11.00;70.90
78779;DHT22;68121;52.404;5.318;2023-12-28T06:10:33;10.90;71.00
78779;DHT22;68121;52.404;5.318;2023-12-28T06:12:59;10.90;70.90
78779;DHT22;68121;52.404;5.318;2023-12-28T06:15:25;10.90;71.00
78779;DHT22;68121;52.404;5.318;2023-12-28T06:17:51;10.90;71.00
78779;DHT22;68121;52.404;5.318;2023-12-28T06:20:17;10.90;70.90
78779;DHT22;68121;52.404;5.318;2023-12-28T06:22:44;10.90;70.90
78779;DHT22;68121;52.404;5.318;2023-12-28T06:25:14;10.90;70.80
78779;DHT22;68121;52.404;5.318;2023-12-28T06:27:40;10.90;70.90
78779;DHT22;68121;52.404;5.318;2023-12-28T06:30:07;10.90;70.90
78779;DHT22;68121;52.404;5.318;2023-12-28T06:32:33;10.90;70.80
78779;DHT22;68121;52.404;5.318;2023-12-28T06:34:59;10.90;70.80
78779;DHT22;68121;52.404;5.318;2023-12-28T06:37:25;10.90;70.70
78779;DHT22;68121;52.404;5.318;2023-12-28T06:39:51;10.90;70.80
78779;DHT22;68121;52.404;5.318;2023-12-28T06:42:17;11.00;70.70
78779;DHT22;68121;52.404;5.318;2023-12-28T06:44:43;11.00;70.80
78779;DHT22;68121;52.404;5.318;2023-12-28T06:47:09;11.00;70.70
78779;DHT22;68121;52.404;5.318;2023-12-28T06:49:35;11.00;70.70
78779;DHT22;68121;52.404;5.318;2023-12-28T06:52:01;11.00;70.70
78779;DHT22;68121;52.404;5.318;2023-12-28T06:54:27;11.00;70.70
78779;DHT22;68121;52.404;5.318;2023-12-28T06:56:53;11.00;70.50
78779;DHT22;68121;52.404;5.318;2023-12-28T06:59:19;11.00;70.50
78779;DHT22;68121;52.404;5.318;2023-12-28T07:01:45;11.10;70.50
78779;DHT22;68121;52.404;5.318;2023-12-28T07:04:14;11.10;70.50
78779;DHT22;68121;52.404;5.318;2023-12-28T07:06:40;11.00;70.50
78779;DHT22;68121;52.404;5.318;2023-12-28T07:09:06;11.00;70.50
78779;DHT22;68121;52.404;5.318;2023-12-28T07:11:32;11.10;70.40
78779;DHT22;68121;52.404;5.318;2023-12-28T07:13:58;11.10;70.50
78779;DHT22;68121;52.404;5.318;2023-12-28T07:16:24;11.10;70.40
78779;DHT22;68121;52.404;5.318;2023-12-28T07:18:52;11.10;70.40
78779;DHT22;68121;52.404;5.318;2023-12-28T07:21:18;11.10;70.30
78779;DHT22;68121;52.404;5.318;2023-12-28T07:23:44;11.00;70.40
78779;DHT22;68121;52.404;5.318;2023-12-28T07:26:15;11.00;70.40
78779;DHT22;68121;52.404;5.318;2023-12-28T07:28:41;11.00;70.40
78779;DHT22;68121;52.404;5.318;2023-12-28T07:31:10;11.00;70.30
78779;DHT22;68121;52.404;5.318;2023-12-28T07:33:36;11.00;70.40
78779;DHT22;68121;52.404;5.318;2023-12-28T07:36:02;11.00;70.40
78779;DHT22;68121;52.404;5.318;2023-12-28T07:38:29;11.00;70.30
78779;DHT22;68121;52.404;5.318;2023-12-28T07:40:55;11.00;70.30
78779;DHT22;68121;52.404;5.318;2023-12-28T07:43:21;11.00;70.20
78779;DHT22;68121;52.404;5.318;2023-12-28T07:45:47;11.00;70.20
78779;DHT22;68121;52.404;5.318;2023-12-28T07:48:14;11.00;70.20
78779;DHT22;68121;52.404;5.318;2023-12-28T07:50:40;11.00;70.20
78779;DHT22;68121;52.404;5.318;2023-12-28T07:53:06;10.90;70.20
78779;DHT22;68121;52.404;5.318;2023-12-28T07:55:32;10.90;70.30
78779;DHT22;68121;52.404;5.318;2023-12-28T07:57:58;10.90;70.20
78779;DHT22;68121;52.404;5.318;2023-12-28T08:00:24;10.90;70.20
78779;DHT22;68121;52.404;5.318;2023-12-28T08:02:50;10.90;70.20
78779;DHT22;68121;52.404;5.318;2023-12-28T08:05:16;10.90;70.30
78779;DHT22;68121;52.404;5.318;2023-12-28T08:07:42;10.90;70.20
78779;DHT22;68121;52.404;5.318;2023-12-28T08:10:08;10.90;70.20
78779;DHT22;68121;52.404;5.318;2023-12-28T08:12:34;10.90;70.10
78779;DHT22;68121;52.404;5.318;2023-12-28T08:15:00;10.90;70.20
78779;DHT22;68121;52.404;5.318;2023-12-28T08:17:26;10.90;70.10
78779;DHT22;68121;52.404;5.318;2023-12-28T08:19:52;10.90;70.20
78779;DHT22;68121;52.404;5.318;2023-12-28T08:22:18;10.90;70.10
78779;DHT22;68121;52.404;5.318;2023-12-28T08:24:44;10.90;70.20
78779;DHT22;68121;52.404;5.318;2023-12-28T08:27:10;10.90;70.10
78779;DHT22;68121;52.404;5.318;2023-12-28T08:29:36;10.90;70.20
78779;DHT22;68121;52.404;5.318;2023-12-28T08:32:03;10.90;70.20
78779;DHT22;68121;52.404;5.318;2023-12-28T08:34:29;10.90;70.20
78779;DHT22;68121;52.404;5.318;2023-12-28T08:36:55;10.90;70.20
78779;DHT22;68121;52.404;5.318;2023-12-28T08:39:21;10.90;70.20
78779;DHT22;68121;52.404;5.318;2023-12-28T08:41:47;10.90;70.10
78779;DHT22;68121;52.404;5.318;2023-12-28T08:44:13;10.90;70.10
78779;DHT22;68121;52.404;5.318;2023-12-28T08:46:39;10.90;70.10
78779;DHT22;68121;52.404;5.318;2023-12-28T08:49:05;10.90;70.20
78779;DHT22;68121;52.404;5.318;2023-12-28T08:51:31;10.90;70.10
78779;DHT22;68121;52.404;5.318;2023-12-28T08:53:57;10.90;70.20
78779;DHT22;68121;52.404;5.318;2023-12-28T08:56:23;10.90;70.20
78779;DHT22;68121;52.404;5.318;2023-12-28T08:58:50;10.90;70.10
78779;DHT22;68121;52.404;5.318;2023-12-28T09:01:22;10.90;70.10
78779;DHT22;68121;52.404;5.318;2023-12-28T09:03:49;10.90;70.10
78779;DHT22;68121;52.404;5.318;2023-12-28T09:06:16;10.90;70.10
78779;DHT22;68121;52.404;5.318;2023-12-28T09:08:43;11.00;70.10
78779;DHT22;68121;52.404;5.318;2023-12-28T09:11:13;11.00;70.00
78779;DHT22;68121;52.404;5.318;2023-12-28T09:13:40;11.00;70.00
78779;DHT22;68121;52.404;5.318;2023-12-28T09:16:09;11.00;70.00
78779;DHT22;68121;52.404;5.318;2023-12-28T09:18:36;11.00;70.00
78779;DHT22;68121;52.404;5.318;2023-12-28T09:21:06;11.00;70.00
78779;DHT22;68121;52.404;5.318;2023-12-28T09:23:34;11.00;70.00
78779;DHT22;68121;52.404;5.318;2023-12-28T09:26:01;11.00;70.00
78779;DHT22;68121;52.404;5.318;2023-12-28T09:28:29;11.00;70.00
78779;DHT22;68121;52.404;5.318;2023-12-28T09:30:55;11.00;70.00
78779;DHT22;68121;52.404;5.318;2023-12-28T09:33:21;11.00;70.00
78779;DHT22;68121;52.404;5.318;2023-12-28T09:35:48;11.00;70.00
78779;DHT22;68121;52.404;5.318;2023-12-28T09:38:14;11.10;70.00
78779;DHT22;68121;52.404;5.318;2023-12-28T09:40:43;11.10;70.00
78779;DHT22;68121;52.404;5.318;2023-12-28T09:43:22;11.10;70.00
78779;DHT22;68121;52.404;5.318;2023-12-28T09:45:50;11.10;69.90
78779;DHT22;68121;52.404;5.318;2023-12-28T09:48:16;11.10;69.90
78779;DHT22;68121;52.404;5.318;2023-12-28T09:50:54;11.10;69.90
78779;DHT22;68121;52.404;5.318;2023-12-28T09:53:24;11.10;70.00
78779;DHT22;68121;52.404;5.318;2023-12-28T09:55:50;11.10;69.90
78779;DHT22;68121;52.404;5.318;2023-12-28T09:58:20;11.10;69.90
78779;DHT22;68121;52.404;5.318;2023-12-28T10:00:48;11.10;69.90
78779;DHT22;68121;52.404;5.318;2023-12-28T10:03:15;11.10;69.90
78779;DHT22;68121;52.404;5.318;2023-12-28T10:05:43;11.10;69.90
78779;DHT22;68121;52.404;5.318;2023-12-28T10:08:12;11.10;69.80
78779;DHT22;68121;52.404;5.318;2023-12-28T10:10:39;11.30;69.70
78779;DHT22;68121;52.404;5.318;2023-12-28T10:13:07;11.30;69.60
78779;DHT22;68121;52.404;5.318;2023-12-28T10:15:37;11.30;69.60
78779;DHT22;68121;52.404;5.318;2023-12-28T10:18:06;11.30;69.50
78779;DHT22;68121;52.404;5.318;2023-12-28T10:20:32;11.30;69.40
78779;DHT22;68121;52.404;5.318;2023-12-28T10:22:59;11.30;69.40
78779;DHT22;68121;52.404;5.318;2023-12-28T10:25:25;11.30;69.50
78779;DHT22;68121;52.404;5.318;2023-12-28T10:27:52;11.30;69.50
78779;DHT22;68121;52.404;5.318;2023-12-28T10:30:20;11.30;69.40
78779;DHT22;68121;52.404;5.318;2023-12-28T10:32:47;11.30;69.50
78779;DHT22;68121;52.404;5.318;2023-12-28T10:35:13;11.20;69.50
78779;DHT22;68121;52.404;5.318;2023-12-28T10:37:40;11.20;69.60
78779;DHT22;68121;52.404;5.318;2023-12-28T10:40:13;11.20;69.60
78779;DHT22;68121;52.404;5.318;2023-12-28T10:43:01;11.20;69.60
78779;DHT22;68121;52.404;5.318;2023-12-28T10:45:30;11.10;69.60
78779;DHT22;68121;52.404;5.318;2023-12-28T10:48:07;11.10;69.70
78779;DHT22;68121;52.404;5.318;2023-12-28T10:50:47;11.10;69.80
78779;DHT22;68121;52.404;5.318;2023-12-28T10:53:45;11.10;69.90
78779;DHT22;68121;52.404;5.318;2023-12-28T10:56:24;11.10;70.00
78779;DHT22;68121;52.404;5.318;2023-12-28T10:59:24;11.00;70.00
78779;DHT22;68121;52.404;5.318;2023-12-28T11:01:56;11.00;70.20
78779;DHT22;68121;52.404;5.318;2023-12-28T11:04:48;11.10;70.10
78779;DHT22;68121;52.404;5.318;2023-12-28T11:07:15;11.10;70.10
78779;DHT22;68121;52.404;5.318;2023-12-28T11:09:44;11.10;70.00
78779;DHT22;68121;52.404;5.318;2023-12-28T11:12:11;11.10;70.00
78779;DHT22;68121;52.404;5.318;2023-12-28T11:14:40;11.10;69.90
78779;DHT22;68121;52.404;5.318;2023-12-28T11:17:06;11.10;69.90
78779;DHT22;68121;52.404;5.318;2023-12-28T11:19:34;11.20;69.80
78779;DHT22;68121;52.404;5.318;2023-12-28T11:22:02;11.20;69.80
78779;DHT22;68121;52.404;5.318;2023-12-28T11:24:29;11.20;69.70
78779;DHT22;68121;52.404;5.318;2023-12-28T11:26:56;11.30;69.50
78779;DHT22;68121;52.404;5.318;2023-12-28T11:29:23;11.30;69.50
78779;DHT22;68121;52.404;5.318;2023-12-28T11:31:53;11.30;69.50
78779;DHT22;68121;52.404;5.318;2023-12-28T11:34:30;11.30;69.50
78779;DHT22;68121;52.404;5.318;2023-12-28T11:36:58;11.30;69.50
78779;DHT22;68121;52.404;5.318;2023-12-28T11:39:36;11.30;69.50
78779;DHT22;68121;52.404;5.318;2023-12-28T11:42:04;11.30;69.40
78779;DHT22;68121;52.404;5.318;2023-12-28T11:44:31;11.30;69.30
78779;DHT22;68121;52.404;5.318;2023-12-28T11:47:13;11.40;69.30
78779;DHT22;68121;52.404;5.318;2023-12-28T11:49:39;11.40;69.30
78779;DHT22;68121;52.404;5.318;2023-12-28T11:52:10;11.40;69.20
78779;DHT22;68121;52.404;5.318;2023-12-28T11:54:39;11.30;69.20
78779;DHT22;68121;52.404;5.318;2023-12-28T11:57:15;11.30;69.20
78779;DHT22;68121;52.404;5.318;2023-12-28T11:59:41;11.40;69.20
78779;DHT22;68121;52.404;5.318;2023-12-28T12:02:08;11.30;69.10
78779;DHT22;68121;52.404;5.318;2023-12-28T12:04:34;11.30;69.10
78779;DHT22;68121;52.404;5.318;2023-12-28T12:07:04;11.30;69.20
78779;DHT22;68121;52.404;5.318;2023-12-28T12:09:30;11.40;69.20
78779;DHT22;68121;52.404;5.318;2023-12-28T12:12:01;11.40;69.10
78779;DHT22;68121;52.404;5.318;2023-12-28T12:14:28;11.30;69.10
78779;DHT22;68121;52.404;5.318;2023-12-28T12:16:55;11.30;69.20
78779;DHT22;68121;52.404;5.318;2023-12-28T12:19:25;11.30;69.20
78779;DHT22;68121;52.404;5.318;2023-12-28T12:21:55;11.30;69.30
78779;DHT22;68121;52.404;5.318;2023-12-28T12:24:22;11.30;69.30
78779;DHT22;68121;52.404;5.318;2023-12-28T12:26:52;11.30;69.30
78779;DHT22;68121;52.404;5.318;2023-12-28T12:29:18;11.30;69.30
78779;DHT22;68121;52.404;5.318;2023-12-28T12:31:47;11.30;69.30
78779;DHT22;68121;52.404;5.318;2023-12-28T12:34:16;11.30;69.30
78779;DHT22;68121;52.404;5.318;2023-12-28T12:36:43;11.30;69.30
78779;DHT22;68121;52.404;5.318;2023-12-28T12:39:10;11.20;69.40
78779;DHT22;68121;52.404;5.318;2023-12-28T12:41:37;11.20;69.30
78779;DHT22;68121;52.404;5.318;2023-12-28T12:44:04;11.20;69.30
78779;DHT22;68121;52.404;5.318;2023-12-28T12:46:30;11.30;69.30
78779;DHT22;68121;52.404;5.318;2023-12-28T12:48:58;11.30;69.30
78779;DHT22;68121;52.404;5.318;2023-12-28T12:51:28;11.30;69.20
78779;DHT22;68121;52.404;5.318;2023-12-28T12:53:58;11.30;69.20
78779;DHT22;68121;52.404;5.318;2023-12-28T12:56:27;11.30;69.10
78779;DHT22;68121;52.404;5.318;2023-12-28T12:58:57;11.40;69.00
78779;DHT22;68121;52.404;5.318;2023-12-28T13:01:24;11.40;68.90
78779;DHT22;68121;52.404;5.318;2023-12-28T13:03:50;11.40;68.90
78779;DHT22;68121;52.404;5.318;2023-12-28T13:06:17;11.50;68.80
78779;DHT22;68121;52.404;5.318;2023-12-28T13:08:43;11.50;68.70
78779;DHT22;68121;52.404;5.318;2023-12-28T13:11:09;11.50;68.70
78779;DHT22;68121;52.404;5.318;2023-12-28T13:13:36;11.50;68.70
78779;DHT22;68121;52.404;5.318;2023-12-28T13:16:02;11.50;68.70
78779;DHT22;68121;52.404;5.318;2023-12-28T13:18:28;11.50;68.60
78779;DHT22;68121;52.404;5.318;2023-12-28T13:20:55;11.50;68.60
78779;DHT22;68121;52.404;5.318;2023-12-28T13:23:21;11.50;68.60
78779;DHT22;68121;52.404;5.318;2023-12-28T13:25:47;11.50;68.50
78779;DHT22;68121;52.404;5.318;2023-12-28T13:28:13;11.50;68.60
78779;DHT22;68121;52.404;5.318;2023-12-28T13:30:40;11.50;68.60
78779;DHT22;68121;52.404;5.318;2023-12-28T13:33:06;11.50;68.50
78779;DHT22;68121;52.404;5.318;2023-12-28T13:35:32;11.50;68.60
78779;DHT22;68121;52.404;5.318;2023-12-28T13:37:59;11.50;68.50
78779;DHT22;68121;52.404;5.318;2023-12-28T13:40:28;11.50;68.50
78779;DHT22;68121;52.404;5.318;2023-12-28T13:42:54;11.50;68.60
78779;DHT22;68121;52.404;5.318;2023-12-28T13:45:20;11.50;68.50
78779;DHT22;68121;52.404;5.318;2023-12-28T13:47:46;11.50;68.50
78779;DHT22;68121;52.404;5.318;2023-12-28T13:50:12;11.50;68.50
78779;DHT22;68121;52.404;5.318;2023-12-28T13:52:38;11.50;68.30
78779;DHT22;68121;52.404;5.318;2023-12-28T13:55:04;11.50;68.30
78779;DHT22;68121;52.404;5.318;2023-12-28T13:57:30;11.50;68.30
78779;DHT22;68121;52.404;5.318;2023-12-28T13:59:56;11.50;68.30
78779;DHT22;68121;52.404;5.318;2023-12-28T14:02:26;11.40;68.20
78779;DHT22;68121;52.404;5.318;2023-12-28T14:04:52;11.40;68.20
78779;DHT22;68121;52.404;5.318;2023-12-28T14:07:20;11.40;68.20
78779;DHT22;68121;52.404;5.318;2023-12-28T14:09:46;11.40;68.20
78779;DHT22;68121;52.404;5.318;2023-12-28T14:12:12;11.40;68.20
78779;DHT22;68121;52.404;5.318;2023-12-28T14:14:38;11.40;68.20
78779;DHT22;68121;52.404;5.318;2023-12-28T14:17:04;11.40;68.20
78779;DHT22;68121;52.404;5.318;2023-12-28T14:19:31;11.30;68.30
78779;DHT22;68121;52.404;5.318;2023-12-28T14:21:58;11.30;68.50
78779;DHT22;68121;52.404;5.318;2023-12-28T14:24:25;11.20;68.60
78779;DHT22;68121;52.404;5.318;2023-12-28T14:26:53;11.10;68.80
78779;DHT22;68121;52.404;5.318;2023-12-28T14:29:21;11.10;69.00
78779;DHT22;68121;52.404;5.318;2023-12-28T14:31:47;11.00;69.20
78779;DHT22;68121;52.404;5.318;2023-12-28T14:34:14;10.90;69.30
78779;DHT22;68121;52.404;5.318;2023-12-28T14:36:40;10.90;69.50
78779;DHT22;68121;52.404;5.318;2023-12-28T14:39:07;10.90;69.60
78779;DHT22;68121;52.404;5.318;2023-12-28T14:41:35;10.90;69.60
78779;DHT22;68121;52.404;5.318;2023-12-28T14:44:01;10.80;69.70
78779;DHT22;68121;52.404;5.318;2023-12-28T14:46:28;10.80;69.70
78779;DHT22;68121;52.404;5.318;2023-12-28T14:48:55;10.90;69.80
78779;DHT22;68121;52.404;5.318;2023-12-28T14:51:22;10.80;69.80
78779;DHT22;68121;52.404;5.318;2023-12-28T14:53:48;10.80;69.80
78779;DHT22;68121;52.404;5.318;2023-12-28T14:56:14;10.80;69.90
78779;DHT22;68121;52.404;5.318;2023-12-28T14:58:41;10.80;69.90
78779;DHT22;68121;52.404;5.318;2023-12-28T15:01:17;10.80;69.90
78779;DHT22;68121;52.404;5.318;2023-12-28T15:03:46;10.80;69.90
78779;DHT22;68121;52.404;5.318;2023-12-28T15:06:12;10.80;70.00
78779;DHT22;68121;52.404;5.318;2023-12-28T15:08:38;10.80;70.00
78779;DHT22;68121;52.404;5.318;2023-12-28T15:11:04;10.80;70.00
78779;DHT22;68121;52.404;5.318;2023-12-28T15:13:33;10.80;70.10
78779;DHT22;68121;52.404;5.318;2023-12-28T15:16:00;10.80;70.10
78779;DHT22;68121;52.404;5.318;2023-12-28T15:18:30;10.80;70.20
78779;DHT22;68121;52.404;5.318;2023-12-28T15:20:59;10.80;70.20
78779;DHT22;68121;52.404;5.318;2023-12-28T15:23:26;10.80;70.30
78779;DHT22;68121;52.404;5.318;2023-12-28T15:25:53;10.80;70.30
78779;DHT22;68121;52.404;5.318;2023-12-28T15:28:19;10.80;70.30
78779;DHT22;68121;52.404;5.318;2023-12-28T15:30:46;10.80;70.30